sensor_id;sensor_type;location;lat;lon;timestamp;P1;durP1;ratioP1;P2;durP2;ratioP2
78877;SDS011;68257;43.514;1.498;2023-05-07T00:01:25;9.33;;;4.50;;
78877;SDS011;68257;43.514;1.498;2023-05-07T00:03:51;7.10;;;4.10;;
78877;SDS011;68257;43.514;1.498;2023-05-07T00:06:16;8.00;;;4.10;;
78877;SDS011;68257;43.514;1.498;2023-05-07T00:08:42;8.35;;;4.05;;
78877;SDS011;68257;43.514;1.498;2023-05-07T00:11:07;6.87;;;4.20;;
78877;SDS011;68257;43.514;1.498;2023-05-07T00:13:32;7.97;;;4.00;;
78877;SDS011;68257;43.514;1.498;2023-05-07T00:16:01;6.82;;;3.92;;
78877;SDS011;68257;43.514;1.498;2023-05-07T00:18:27;9.70;;;4.30;;
78877;SDS011;68257;43.514;1.498;2023-05-07T00:20:52;11.07;;;4.60;;
78877;SDS011;68257;43.514;1.498;2023-05-07T00:23:18;8.70;;;4.60;;
78877;SDS011;68257;43.514;1.498;2023-05-07T00:25:43;9.93;;;4.50;;
78877;SDS011;68257;43.514;1.498;2023-05-07T00:28:08;8.43;;;4.17;;
78877;SDS011;68257;43.514;1.498;2023-05-07T00:30:34;7.77;;;4.20;;
78877;SDS011;68257;43.514;1.498;2023-05-07T00:32:59;11.00;;;4.23;;
78877;SDS011;68257;43.514;1.498;2023-05-07T00:35:25;7.67;;;4.07;;
78877;SDS011;68257;43.514;1.498;2023-05-07T00:37:50;6.95;;;4.25;;
78877;SDS011;68257;43.514;1.498;2023-05-07T00:40:16;9.13;;;4.43;;
78877;SDS011;68257;43.514;1.498;2023-05-07T00:42:41;7.37;;;4.07;;
78877;SDS011;68257;43.514;1.498;2023-05-07T00:45:11;10.30;;;4.30;;
78877;SDS011;68257;43.514;1.498;2023-05-07T00:47:38;7.82;;;4.40;;
78877;SDS011;68257;43.514;1.498;2023-05-07T00:50:04;10.00;;;4.35;;
78877;SDS011;68257;43.514;1.498;2023-05-07T00:52:30;8.70;;;4.20;;
78877;SDS011;68257;43.514;1.498;2023-05-07T00:54:56;7.35;;;4.30;;
78877;SDS011;68257;43.514;1.498;2023-05-07T00:57:21;7.03;;;4.10;;
78877;SDS011;68257;43.514;1.498;2023-05-07T00:59:49;9.50;;;4.40;;
78877;SDS011;68257;43.514;1.498;2023-05-07T01:02:16;9.30;;;4.30;;
78877;SDS011;68257;43.514;1.498;2023-05-07T01:04:42;8.45;;;4.60;;
78877;SDS011;68257;43.514;1.498;2023-05-07T01:07:08;8.13;;;4.47;;
78877;SDS011;68257;43.514;1.498;2023-05-07T01:09:34;9.27;;;4.07;;
78877;SDS011;68257;43.514;1.498;2023-05-07T01:12:00;9.73;;;3.97;;
78877;SDS011;68257;43.514;1.498;2023-05-07T01:14:25;7.90;;;4.07;;
78877;SDS011;68257;43.514;1.498;2023-05-07T01:16:51;7.85;;;3.80;;
78877;SDS011;68257;43.514;1.498;2023-05-07T01:19:17;10.63;;;4.47;;
78877;SDS011;68257;43.514;1.498;2023-05-07T01:21:47;8.43;;;4.00;;
78877;SDS011;68257;43.514;1.498;2023-05-07T01:24:13;11.55;;;3.92;;
78877;SDS011;68257;43.514;1.498;2023-05-07T01:26:39;9.00;;;4.10;;
78877;SDS011;68257;43.514;1.498;2023-05-07T01:29:05;9.00;;;4.20;;
78877;SDS011;68257;43.514;1.498;2023-05-07T01:31:31;10.53;;;3.43;;
78877;SDS011;68257;43.514;1.498;2023-05-07T01:33:57;8.38;;;3.70;;
78877;SDS011;68257;43.514;1.498;2023-05-07T01:36:24;9.00;;;3.80;;
78877;SDS011;68257;43.514;1.498;2023-05-07T01:38:52;8.70;;;3.47;;
78877;SDS011;68257;43.514;1.498;2023-05-07T01:41:18;8.70;;;3.70;;
78877;SDS011;68257;43.514;1.498;2023-05-07T01:43:44;8.80;;;3.45;;
78877;SDS011;68257;43.514;1.498;2023-05-07T01:46:10;8.60;;;3.53;;
78877;SDS011;68257;43.514;1.498;2023-05-07T01:48:37;9.05;;;3.67;;
78877;SDS011;68257;43.514;1.498;2023-05-07T01:51:02;11.93;;;4.00;;
78877;SDS011;68257;43.514;1.498;2023-05-07T01:53:28;10.43;;;3.40;;
78877;SDS011;68257;43.514;1.498;2023-05-07T01:55:53;7.97;;;3.40;;
78877;SDS011;68257;43.514;1.498;2023-05-07T01:58:19;7.83;;;3.33;;
78877;SDS011;68257;43.514;1.498;2023-05-07T02:00:44;8.83;;;3.53;;
78877;SDS011;68257;43.514;1.498;2023-05-07T02:03:10;8.23;;;3.42;;
78877;SDS011;68257;43.514;1.498;2023-05-07T02:05:35;7.73;;;3.20;;
78877;SDS011;68257;43.514;1.498;2023-05-07T02:08:00;8.80;;;3.67;;
78877;SDS011;68257;43.514;1.498;2023-05-07T02:10:26;8.80;;;3.17;;
78877;SDS011;68257;43.514;1.498;2023-05-07T02:12:51;11.73;;;3.40;;
78877;SDS011;68257;43.514;1.498;2023-05-07T02:15:16;7.13;;;2.90;;
78877;SDS011;68257;43.514;1.498;2023-05-07T02:17:58;7.38;;;2.97;;
78877;SDS011;68257;43.514;1.498;2023-05-07T02:20:25;8.70;;;3.03;;
78877;SDS011;68257;43.514;1.498;2023-05-07T02:22:50;8.52;;;3.28;;
78877;SDS011;68257;43.514;1.498;2023-05-07T02:25:16;7.97;;;2.90;;
78877;SDS011;68257;43.514;1.498;2023-05-07T02:27:41;7.07;;;2.93;;
78877;SDS011;68257;43.514;1.498;2023-05-07T02:30:07;7.87;;;3.03;;
78877;SDS011;68257;43.514;1.498;2023-05-07T02:32:32;8.02;;;3.00;;
78877;SDS011;68257;43.514;1.498;2023-05-07T02:34:58;7.83;;;2.93;;
78877;SDS011;68257;43.514;1.498;2023-05-07T02:37:23;10.57;;;3.17;;
78877;SDS011;68257;43.514;1.498;2023-05-07T02:39:48;7.03;;;3.10;;
78877;SDS011;68257;43.514;1.498;2023-05-07T02:42:14;11.37;;;3.20;;
78877;SDS011;68257;43.514;1.498;2023-05-07T02:44:39;7.83;;;2.83;;
78877;SDS011;68257;43.514;1.498;2023-05-07T02:47:04;9.47;;;3.33;;
78877;SDS011;68257;43.514;1.498;2023-05-07T02:49:33;7.97;;;2.93;;
78877;SDS011;68257;43.514;1.498;2023-05-07T02:51:58;10.43;;;3.13;;
78877;SDS011;68257;43.514;1.498;2023-05-07T02:54:24;10.43;;;3.03;;
78877;SDS011;68257;43.514;1.498;2023-05-07T02:56:49;6.37;;;2.67;;
78877;SDS011;68257;43.514;1.498;2023-05-07T02:59:15;9.90;;;2.70;;
78877;SDS011;68257;43.514;1.498;2023-05-07T03:01:40;7.32;;;2.78;;
78877;SDS011;68257;43.514;1.498;2023-05-07T03:04:08;11.60;;;3.03;;
78877;SDS011;68257;43.514;1.498;2023-05-07T03:06:34;7.35;;;3.05;;
78877;SDS011;68257;43.514;1.498;2023-05-07T03:09:00;6.27;;;3.00;;
78877;SDS011;68257;43.514;1.498;2023-05-07T03:11:25;9.63;;;3.00;;
78877;SDS011;68257;43.514;1.498;2023-05-07T03:13:50;11.80;;;3.08;;
78877;SDS011;68257;43.514;1.498;2023-05-07T03:16:16;7.20;;;3.03;;
78877;SDS011;68257;43.514;1.498;2023-05-07T03:18:41;8.87;;;3.00;;
78877;SDS011;68257;43.514;1.498;2023-05-07T03:21:06;10.30;;;3.33;;
78877;SDS011;68257;43.514;1.498;2023-05-07T03:23:32;8.73;;;3.07;;
78877;SDS011;68257;43.514;1.498;2023-05-07T03:25:57;9.90;;;2.77;;
78877;SDS011;68257;43.514;1.498;2023-05-07T03:28:23;6.20;;;2.70;;
78877;SDS011;68257;43.514;1.498;2023-05-07T03:30:48;8.63;;;2.77;;
78877;SDS011;68257;43.514;1.498;2023-05-07T03:33:14;10.00;;;2.80;;
78877;SDS011;68257;43.514;1.498;2023-05-07T03:35:39;13.50;;;2.97;;
78877;SDS011;68257;43.514;1.498;2023-05-07T03:38:04;11.33;;;3.00;;
78877;SDS011;68257;43.514;1.498;2023-05-07T03:40:30;8.55;;;3.10;;
78877;SDS011;68257;43.514;1.498;2023-05-07T03:42:55;10.47;;;2.93;;
78877;SDS011;68257;43.514;1.498;2023-05-07T03:45:21;8.33;;;3.17;;
78877;SDS011;68257;43.514;1.498;2023-05-07T03:47:46;10.45;;;2.95;;
78877;SDS011;68257;43.514;1.498;2023-05-07T03:50:11;8.93;;;2.83;;
78877;SDS011;68257;43.514;1.498;2023-05-07T03:52:37;8.10;;;2.67;;
78877;SDS011;68257;43.514;1.498;2023-05-07T03:55:02;10.33;;;2.80;;
78877;SDS011;68257;43.514;1.498;2023-05-07T03:57:28;8.17;;;2.90;;
78877;SDS011;68257;43.514;1.498;2023-05-07T03:59:53;9.63;;;3.00;;
78877;SDS011;68257;43.514;1.498;2023-05-07T04:02:18;8.67;;;2.77;;
78877;SDS011;68257;43.514;1.498;2023-05-07T04:04:44;10.90;;;3.00;;
78877;SDS011;68257;43.514;1.498;2023-05-07T04:07:09;11.73;;;2.80;;
78877;SDS011;68257;43.514;1.498;2023-05-07T04:09:35;8.77;;;3.00;;
78877;SDS011;68257;43.514;1.498;2023-05-07T04:12:00;11.70;;;2.80;;
78877;SDS011;68257;43.514;1.498;2023-05-07T04:14:26;9.38;;;2.70;;
78877;SDS011;68257;43.514;1.498;2023-05-07T04:16:51;7.33;;;2.50;;
78877;SDS011;68257;43.514;1.498;2023-05-07T04:19:17;10.03;;;2.80;;
78877;SDS011;68257;43.514;1.498;2023-05-07T04:21:42;9.35;;;2.83;;
78877;SDS011;68257;43.514;1.498;2023-05-07T04:24:08;9.43;;;2.78;;
78877;SDS011;68257;43.514;1.498;2023-05-07T04:26:33;9.73;;;2.87;;
78877;SDS011;68257;43.514;1.498;2023-05-07T04:28:59;9.15;;;2.45;;
78877;SDS011;68257;43.514;1.498;2023-05-07T04:31:24;10.87;;;2.73;;
78877;SDS011;68257;43.514;1.498;2023-05-07T04:33:50;8.68;;;3.22;;
78877;SDS011;68257;43.514;1.498;2023-05-07T04:36:16;11.50;;;3.03;;
78877;SDS011;68257;43.514;1.498;2023-05-07T04:38:42;7.45;;;2.50;;
78877;SDS011;68257;43.514;1.498;2023-05-07T04:41:08;7.90;;;2.80;;
78877;SDS011;68257;43.514;1.498;2023-05-07T04:43:33;12.23;;;2.65;;
78877;SDS011;68257;43.514;1.498;2023-05-07T04:45:59;10.50;;;2.60;;
78877;SDS011;68257;43.514;1.498;2023-05-07T04:48:24;7.70;;;2.83;;
78877;SDS011;68257;43.514;1.498;2023-05-07T04:50:51;9.18;;;2.78;;
78877;SDS011;68257;43.514;1.498;2023-05-07T04:53:16;7.67;;;2.80;;
78877;SDS011;68257;43.514;1.498;2023-05-07T04:55:42;8.95;;;2.55;;
78877;SDS011;68257;43.514;1.498;2023-05-07T04:58:08;11.37;;;3.13;;
78877;SDS011;68257;43.514;1.498;2023-05-07T05:00:33;9.95;;;2.67;;
78877;SDS011;68257;43.514;1.498;2023-05-07T05:02:59;8.90;;;2.53;;
78877;SDS011;68257;43.514;1.498;2023-05-07T05:05:24;9.90;;;2.73;;
78877;SDS011;68257;43.514;1.498;2023-05-07T05:07:50;9.50;;;2.60;;
78877;SDS011;68257;43.514;1.498;2023-05-07T05:10:16;7.95;;;2.42;;
78877;SDS011;68257;43.514;1.498;2023-05-07T05:12:42;7.43;;;2.53;;
78877;SDS011;68257;43.514;1.498;2023-05-07T05:15:07;11.03;;;2.77;;
78877;SDS011;68257;43.514;1.498;2023-05-07T05:17:34;9.40;;;2.70;;
78877;SDS011;68257;43.514;1.498;2023-05-07T05:20:00;8.32;;;2.65;;
78877;SDS011;68257;43.514;1.498;2023-05-07T05:22:25;7.70;;;2.10;;
78877;SDS011;68257;43.514;1.498;2023-05-07T05:24:50;10.60;;;2.50;;
78877;SDS011;68257;43.514;1.498;2023-05-07T05:27:16;9.50;;;2.93;;
78877;SDS011;68257;43.514;1.498;2023-05-07T05:29:41;11.50;;;2.78;;
78877;SDS011;68257;43.514;1.498;2023-05-07T05:32:07;9.80;;;3.00;;
78877;SDS011;68257;43.514;1.498;2023-05-07T05:34:32;10.37;;;2.93;;
78877;SDS011;68257;43.514;1.498;2023-05-07T05:36:58;10.73;;;2.92;;
78877;SDS011;68257;43.514;1.498;2023-05-07T05:39:24;10.53;;;2.67;;
78877;SDS011;68257;43.514;1.498;2023-05-07T05:41:49;10.50;;;3.10;;
78877;SDS011;68257;43.514;1.498;2023-05-07T05:44:15;9.55;;;2.83;;
78877;SDS011;68257;43.514;1.498;2023-05-07T05:46:40;9.43;;;2.53;;
78877;SDS011;68257;43.514;1.498;2023-05-07T05:49:06;12.57;;;2.90;;
78877;SDS011;68257;43.514;1.498;2023-05-07T05:51:31;10.52;;;2.80;;
78877;SDS011;68257;43.514;1.498;2023-05-07T05:53:57;11.70;;;2.90;;
78877;SDS011;68257;43.514;1.498;2023-05-07T05:56:22;12.90;;;3.30;;
78877;SDS011;68257;43.514;1.498;2023-05-07T05:58:48;14.00;;;3.50;;
78877;SDS011;68257;43.514;1.498;2023-05-07T06:01:13;11.15;;;2.90;;
78877;SDS011;68257;43.514;1.498;2023-05-07T06:03:39;8.15;;;2.60;;
78877;SDS011;68257;43.514;1.498;2023-05-07T06:06:04;9.73;;;2.97;;
78877;SDS011;68257;43.514;1.498;2023-05-07T06:08:30;8.45;;;2.72;;
78877;SDS011;68257;43.514;1.498;2023-05-07T06:10:55;10.27;;;2.70;;
78877;SDS011;68257;43.514;1.498;2023-05-07T06:13:21;10.17;;;2.70;;
78877;SDS011;68257;43.514;1.498;2023-05-07T06:15:47;9.90;;;2.78;;
78877;SDS011;68257;43.514;1.498;2023-05-07T06:18:14;14.15;;;2.60;;
78877;SDS011;68257;43.514;1.498;2023-05-07T06:20:39;10.30;;;2.90;;
78877;SDS011;68257;43.514;1.498;2023-05-07T06:23:04;13.47;;;3.17;;
78877;SDS011;68257;43.514;1.498;2023-05-07T06:25:30;12.17;;;2.70;;
78877;SDS011;68257;43.514;1.498;2023-05-07T06:27:55;10.80;;;2.77;;
78877;SDS011;68257;43.514;1.498;2023-05-07T06:30:20;7.10;;;2.60;;
78877;SDS011;68257;43.514;1.498;2023-05-07T06:32:46;8.63;;;3.00;;
78877;SDS011;68257;43.514;1.498;2023-05-07T06:35:11;9.53;;;2.53;;
78877;SDS011;68257;43.514;1.498;2023-05-07T06:37:37;11.20;;;2.73;;
78877;SDS011;68257;43.514;1.498;2023-05-07T06:40:07;10.88;;;3.03;;
78877;SDS011;68257;43.514;1.498;2023-05-07T06:42:33;9.75;;;2.88;;
78877;SDS011;68257;43.514;1.498;2023-05-07T06:44:59;12.97;;;2.90;;
78877;SDS011;68257;43.514;1.498;2023-05-07T06:47:24;11.43;;;2.63;;
78877;SDS011;68257;43.514;1.498;2023-05-07T06:49:50;10.95;;;2.60;;
78877;SDS011;68257;43.514;1.498;2023-05-07T06:52:15;8.43;;;2.50;;
78877;SDS011;68257;43.514;1.498;2023-05-07T06:54:40;8.90;;;3.07;;
78877;SDS011;68257;43.514;1.498;2023-05-07T06:57:06;11.17;;;3.17;;
78877;SDS011;68257;43.514;1.498;2023-05-07T06:59:32;9.60;;;3.00;;
78877;SDS011;68257;43.514;1.498;2023-05-07T07:01:57;12.87;;;3.30;;
78877;SDS011;68257;43.514;1.498;2023-05-07T07:04:22;8.50;;;2.50;;
78877;SDS011;68257;43.514;1.498;2023-05-07T07:06:49;9.73;;;3.10;;
78877;SDS011;68257;43.514;1.498;2023-05-07T07:09:15;9.68;;;3.10;;
78877;SDS011;68257;43.514;1.498;2023-05-07T07:11:40;9.10;;;2.77;;
78877;SDS011;68257;43.514;1.498;2023-05-07T07:14:05;9.87;;;2.87;;
78877;SDS011;68257;43.514;1.498;2023-05-07T07:16:31;10.27;;;2.93;;
78877;SDS011;68257;43.514;1.498;2023-05-07T07:18:56;11.80;;;2.97;;
78877;SDS011;68257;43.514;1.498;2023-05-07T07:21:21;8.75;;;3.25;;
78877;SDS011;68257;43.514;1.498;2023-05-07T07:23:47;10.30;;;2.80;;
78877;SDS011;68257;43.514;1.498;2023-05-07T07:26:12;10.40;;;2.63;;
78877;SDS011;68257;43.514;1.498;2023-05-07T07:28:47;13.07;;;3.50;;
78877;SDS011;68257;43.514;1.498;2023-05-07T07:31:12;11.48;;;3.13;;
78877;SDS011;68257;43.514;1.498;2023-05-07T07:33:38;13.17;;;3.17;;
78877;SDS011;68257;43.514;1.498;2023-05-07T07:36:05;11.43;;;3.10;;
78877;SDS011;68257;43.514;1.498;2023-05-07T07:38:31;9.90;;;2.85;;
78877;SDS011;68257;43.514;1.498;2023-05-07T07:40:56;7.73;;;2.77;;
78877;SDS011;68257;43.514;1.498;2023-05-07T07:43:22;9.97;;;3.20;;
78877;SDS011;68257;43.514;1.498;2023-05-07T07:45:47;12.30;;;2.60;;
78877;SDS011;68257;43.514;1.498;2023-05-07T07:48:13;9.88;;;3.28;;
78877;SDS011;68257;43.514;1.498;2023-05-07T07:50:38;12.07;;;2.77;;
78877;SDS011;68257;43.514;1.498;2023-05-07T07:53:03;7.80;;;2.90;;
78877;SDS011;68257;43.514;1.498;2023-05-07T07:55:29;10.37;;;2.90;;
78877;SDS011;68257;43.514;1.498;2023-05-07T07:57:56;9.50;;;2.90;;
78877;SDS011;68257;43.514;1.498;2023-05-07T08:00:21;13.83;;;3.50;;
78877;SDS011;68257;43.514;1.498;2023-05-07T08:02:47;8.32;;;2.85;;
78877;SDS011;68257;43.514;1.498;2023-05-07T08:05:12;11.73;;;3.43;;
78877;SDS011;68257;43.514;1.498;2023-05-07T08:07:37;14.07;;;2.87;;
78877;SDS011;68257;43.514;1.498;2023-05-07T08:10:03;13.03;;;2.87;;
78877;SDS011;68257;43.514;1.498;2023-05-07T08:12:29;16.25;;;3.08;;
78877;SDS011;68257;43.514;1.498;2023-05-07T08:14:54;14.03;;;3.40;;
78877;SDS011;68257;43.514;1.498;2023-05-07T08:17:20;11.40;;;3.03;;
78877;SDS011;68257;43.514;1.498;2023-05-07T08:19:47;13.05;;;2.97;;
78877;SDS011;68257;43.514;1.498;2023-05-07T08:22:13;9.50;;;2.65;;
78877;SDS011;68257;43.514;1.498;2023-05-07T08:24:38;25.07;;;3.83;;
78877;SDS011;68257;43.514;1.498;2023-05-07T08:27:04;9.60;;;3.07;;
78877;SDS011;68257;43.514;1.498;2023-05-07T08:29:30;10.00;;;2.90;;
78877;SDS011;68257;43.514;1.498;2023-05-07T08:31:55;12.60;;;3.20;;
78877;SDS011;68257;43.514;1.498;2023-05-07T08:34:21;12.03;;;3.40;;
78877;SDS011;68257;43.514;1.498;2023-05-07T08:36:47;17.27;;;3.63;;
78877;SDS011;68257;43.514;1.498;2023-05-07T08:39:13;14.87;;;3.83;;
78877;SDS011;68257;43.514;1.498;2023-05-07T08:41:40;10.38;;;3.20;;
78877;SDS011;68257;43.514;1.498;2023-05-07T08:44:11;10.77;;;2.80;;
78877;SDS011;68257;43.514;1.498;2023-05-07T08:46:38;10.82;;;3.22;;
78877;SDS011;68257;43.514;1.498;2023-05-07T08:49:04;13.32;;;3.70;;
78877;SDS011;68257;43.514;1.498;2023-05-07T08:51:30;14.13;;;3.50;;
78877;SDS011;68257;43.514;1.498;2023-05-07T08:53:56;11.13;;;3.60;;
78877;SDS011;68257;43.514;1.498;2023-05-07T08:56:21;54.43;;;6.23;;
78877;SDS011;68257;43.514;1.498;2023-05-07T08:58:47;17.70;;;3.07;;
78877;SDS011;68257;43.514;1.498;2023-05-07T09:01:13;14.13;;;3.10;;
78877;SDS011;68257;43.514;1.498;2023-05-07T09:03:39;11.97;;;3.10;;
78877;SDS011;68257;43.514;1.498;2023-05-07T09:06:05;11.18;;;3.10;;
78877;SDS011;68257;43.514;1.498;2023-05-07T09:08:32;14.95;;;2.97;;
78877;SDS011;68257;43.514;1.498;2023-05-07T09:10:58;10.80;;;2.72;;
78877;SDS011;68257;43.514;1.498;2023-05-07T09:13:23;7.87;;;2.50;;
78877;SDS011;68257;43.514;1.498;2023-05-07T09:15:49;10.27;;;2.90;;
78877;SDS011;68257;43.514;1.498;2023-05-07T09:18:14;10.43;;;3.10;;
78877;SDS011;68257;43.514;1.498;2023-05-07T09:20:41;7.97;;;2.72;;
78877;SDS011;68257;43.514;1.498;2023-05-07T09:23:07;11.98;;;2.92;;
78877;SDS011;68257;43.514;1.498;2023-05-07T09:25:33;8.93;;;2.80;;
78877;SDS011;68257;43.514;1.498;2023-05-07T09:28:00;9.82;;;2.80;;
78877;SDS011;68257;43.514;1.498;2023-05-07T09:30:29;10.70;;;2.80;;
78877;SDS011;68257;43.514;1.498;2023-05-07T09:32:55;10.48;;;3.15;;
78877;SDS011;68257;43.514;1.498;2023-05-07T09:35:22;9.40;;;3.17;;
78877;SDS011;68257;43.514;1.498;2023-05-07T09:37:49;12.80;;;3.13;;
78877;SDS011;68257;43.514;1.498;2023-05-07T09:40:24;7.18;;;2.78;;
78877;SDS011;68257;43.514;1.498;2023-05-07T09:42:51;7.80;;;2.65;;
78877;SDS011;68257;43.514;1.498;2023-05-07T09:45:26;8.50;;;2.63;;
78877;SDS011;68257;43.514;1.498;2023-05-07T09:47:55;10.48;;;2.85;;
78877;SDS011;68257;43.514;1.498;2023-05-07T09:50:26;8.30;;;2.67;;
78877;SDS011;68257;43.514;1.498;2023-05-07T09:52:56;8.63;;;3.00;;
78877;SDS011;68257;43.514;1.498;2023-05-07T09:55:22;11.35;;;2.97;;
78877;SDS011;68257;43.514;1.498;2023-05-07T09:57:51;9.33;;;3.23;;
78877;SDS011;68257;43.514;1.498;2023-05-07T10:00:21;9.50;;;2.90;;
78877;SDS011;68257;43.514;1.498;2023-05-07T10:02:51;9.30;;;3.05;;
78877;SDS011;68257;43.514;1.498;2023-05-07T10:05:20;7.10;;;2.90;;
78877;SDS011;68257;43.514;1.498;2023-05-07T10:07:46;10.05;;;2.80;;
78877;SDS011;68257;43.514;1.498;2023-05-07T10:10:12;9.07;;;2.75;;
78877;SDS011;68257;43.514;1.498;2023-05-07T10:12:40;8.10;;;3.10;;
78877;SDS011;68257;43.514;1.498;2023-05-07T10:15:06;9.97;;;3.93;;
78877;SDS011;68257;43.514;1.498;2023-05-07T10:17:38;8.05;;;3.22;;
78877;SDS011;68257;43.514;1.498;2023-05-07T10:20:05;7.55;;;2.85;;
78877;SDS011;68257;43.514;1.498;2023-05-07T10:22:32;10.63;;;3.00;;
78877;SDS011;68257;43.514;1.498;2023-05-07T10:25:03;10.93;;;3.23;;
78877;SDS011;68257;43.514;1.498;2023-05-07T10:27:32;10.25;;;2.97;;
78877;SDS011;68257;43.514;1.498;2023-05-07T10:35:26;9.83;;;3.40;;
78877;SDS011;68257;43.514;1.498;2023-05-07T10:37:55;10.70;;;3.28;;
78877;SDS011;68257;43.514;1.498;2023-05-07T10:40:20;10.67;;;2.97;;
78877;SDS011;68257;43.514;1.498;2023-05-07T10:42:56;9.52;;;3.10;;
78877;SDS011;68257;43.514;1.498;2023-05-07T10:45:23;11.68;;;3.03;;
78877;SDS011;68257;43.514;1.498;2023-05-07T10:50:42;10.30;;;3.15;;
78877;SDS011;68257;43.514;1.498;2023-05-07T10:55:43;8.50;;;2.28;;
78877;SDS011;68257;43.514;1.498;2023-05-07T11:00:46;7.25;;;2.40;;
78877;SDS011;68257;43.514;1.498;2023-05-07T11:03:11;12.68;;;4.25;;
78877;SDS011;68257;43.514;1.498;2023-05-07T11:05:37;11.37;;;2.93;;
78877;SDS011;68257;43.514;1.498;2023-05-07T11:08:03;8.95;;;2.75;;
78877;SDS011;68257;43.514;1.498;2023-05-07T11:13:14;8.10;;;2.50;;
78877;SDS011;68257;43.514;1.498;2023-05-07T11:15:41;9.60;;;3.10;;
78877;SDS011;68257;43.514;1.498;2023-05-07T11:18:09;6.65;;;2.25;;
78877;SDS011;68257;43.514;1.498;2023-05-07T11:20:51;9.32;;;3.17;;
78877;SDS011;68257;43.514;1.498;2023-05-07T11:25:59;8.23;;;3.00;;
78877;SDS011;68257;43.514;1.498;2023-05-07T11:28:27;8.37;;;3.90;;
78877;SDS011;68257;43.514;1.498;2023-05-07T11:30:53;8.00;;;2.85;;
78877;SDS011;68257;43.514;1.498;2023-05-07T11:33:18;7.90;;;3.53;;
78877;SDS011;68257;43.514;1.498;2023-05-07T11:35:44;7.83;;;3.20;;
78877;SDS011;68257;43.514;1.498;2023-05-07T11:38:10;9.60;;;3.88;;
78877;SDS011;68257;43.514;1.498;2023-05-07T11:40:48;8.38;;;3.53;;
78877;SDS011;68257;43.514;1.498;2023-05-07T11:43:14;7.75;;;2.95;;
78877;SDS011;68257;43.514;1.498;2023-05-07T11:45:40;8.70;;;3.50;;
78877;SDS011;68257;43.514;1.498;2023-05-07T11:48:05;8.33;;;3.13;;
78877;SDS011;68257;43.514;1.498;2023-05-07T11:50:31;7.40;;;2.90;;
78877;SDS011;68257;43.514;1.498;2023-05-07T11:52:56;7.60;;;3.93;;
78877;SDS011;68257;43.514;1.498;2023-05-07T11:55:23;8.20;;;3.40;;
78877;SDS011;68257;43.514;1.498;2023-05-07T11:57:49;7.65;;;3.90;;
78877;SDS011;68257;43.514;1.498;2023-05-07T12:00:15;6.75;;;3.53;;
78877;SDS011;68257;43.514;1.498;2023-05-07T12:02:41;8.87;;;3.53;;
78877;SDS011;68257;43.514;1.498;2023-05-07T12:05:10;8.13;;;3.40;;
78877;SDS011;68257;43.514;1.498;2023-05-07T12:07:35;7.90;;;3.70;;
78877;SDS011;68257;43.514;1.498;2023-05-07T12:10:05;8.20;;;3.60;;
78877;SDS011;68257;43.514;1.498;2023-05-07T12:12:31;6.78;;;3.67;;
78877;SDS011;68257;43.514;1.498;2023-05-07T12:15:03;7.55;;;4.15;;
78877;SDS011;68257;43.514;1.498;2023-05-07T12:17:29;6.83;;;3.53;;
78877;SDS011;68257;43.514;1.498;2023-05-07T12:19:54;7.18;;;3.90;;
78877;SDS011;68257;43.514;1.498;2023-05-07T12:22:20;9.37;;;4.43;;
78877;SDS011;68257;43.514;1.498;2023-05-07T12:24:46;6.23;;;4.23;;
78877;SDS011;68257;43.514;1.498;2023-05-07T12:27:15;7.80;;;4.05;;
78877;SDS011;68257;43.514;1.498;2023-05-07T12:29:48;6.32;;;4.13;;
78877;SDS011;68257;43.514;1.498;2023-05-07T12:32:14;7.50;;;4.45;;
78877;SDS011;68257;43.514;1.498;2023-05-07T12:34:41;8.20;;;3.87;;
78877;SDS011;68257;43.514;1.498;2023-05-07T12:37:06;6.40;;;4.20;;
78877;SDS011;68257;43.514;1.498;2023-05-07T12:39:31;8.47;;;3.67;;
78877;SDS011;68257;43.514;1.498;2023-05-07T12:42:00;6.00;;;3.30;;
78877;SDS011;68257;43.514;1.498;2023-05-07T12:44:29;8.85;;;4.00;;
78877;SDS011;68257;43.514;1.498;2023-05-07T12:47:01;7.78;;;3.92;;
78877;SDS011;68257;43.514;1.498;2023-05-07T12:49:27;6.35;;;3.67;;
78877;SDS011;68257;43.514;1.498;2023-05-07T12:51:53;9.97;;;3.40;;
78877;SDS011;68257;43.514;1.498;2023-05-07T12:54:31;6.57;;;3.20;;
78877;SDS011;68257;43.514;1.498;2023-05-07T12:57:07;7.75;;;3.10;;
78877;SDS011;68257;43.514;1.498;2023-05-07T12:59:34;6.93;;;2.97;;
78877;SDS011;68257;43.514;1.498;2023-05-07T13:02:04;5.95;;;4.10;;
78877;SDS011;68257;43.514;1.498;2023-05-07T13:04:30;7.47;;;4.47;;
78877;SDS011;68257;43.514;1.498;2023-05-07T13:06:55;7.40;;;4.10;;
78877;SDS011;68257;43.514;1.498;2023-05-07T13:09:21;6.35;;;3.08;;
78877;SDS011;68257;43.514;1.498;2023-05-07T13:11:46;7.13;;;4.23;;
78877;SDS011;68257;43.514;1.498;2023-05-07T13:14:11;6.77;;;2.90;;
78877;SDS011;68257;43.514;1.498;2023-05-07T13:16:37;6.15;;;3.08;;
78877;SDS011;68257;43.514;1.498;2023-05-07T13:19:03;5.23;;;3.47;;
78877;SDS011;68257;43.514;1.498;2023-05-07T13:21:29;7.37;;;3.97;;
78877;SDS011;68257;43.514;1.498;2023-05-07T13:23:56;14.47;;;6.70;;
78877;SDS011;68257;43.514;1.498;2023-05-07T13:26:22;8.10;;;4.25;;
78877;SDS011;68257;43.514;1.498;2023-05-07T13:28:48;7.80;;;3.60;;
78877;SDS011;68257;43.514;1.498;2023-05-07T13:31:13;6.47;;;3.88;;
78877;SDS011;68257;43.514;1.498;2023-05-07T13:33:39;6.33;;;3.97;;
78877;SDS011;68257;43.514;1.498;2023-05-07T13:36:04;6.97;;;4.30;;
78877;SDS011;68257;43.514;1.498;2023-05-07T13:38:30;6.50;;;4.43;;
78877;SDS011;68257;43.514;1.498;2023-05-07T13:40:56;5.73;;;4.10;;
78877;SDS011;68257;43.514;1.498;2023-05-07T13:43:24;5.80;;;4.30;;
78877;SDS011;68257;43.514;1.498;2023-05-07T13:45:49;6.57;;;5.05;;
78877;SDS011;68257;43.514;1.498;2023-05-07T13:48:15;7.23;;;3.60;;
78877;SDS011;68257;43.514;1.498;2023-05-07T13:50:40;6.70;;;3.57;;
78877;SDS011;68257;43.514;1.498;2023-05-07T13:53:07;6.03;;;4.10;;
78877;SDS011;68257;43.514;1.498;2023-05-07T13:55:32;6.25;;;4.10;;
78877;SDS011;68257;43.514;1.498;2023-05-07T13:57:58;7.30;;;4.70;;
78877;SDS011;68257;43.514;1.498;2023-05-07T14:00:25;6.72;;;3.25;;
78877;SDS011;68257;43.514;1.498;2023-05-07T14:02:51;6.40;;;3.40;;
78877;SDS011;68257;43.514;1.498;2023-05-07T14:05:17;6.90;;;4.43;;
78877;SDS011;68257;43.514;1.498;2023-05-07T14:07:42;6.00;;;4.40;;
78877;SDS011;68257;43.514;1.498;2023-05-07T14:10:08;8.47;;;4.77;;
78877;SDS011;68257;43.514;1.498;2023-05-07T14:12:34;6.70;;;3.75;;
78877;SDS011;68257;43.514;1.498;2023-05-07T14:14:59;7.33;;;3.50;;
78877;SDS011;68257;43.514;1.498;2023-05-07T14:17:25;7.47;;;3.40;;
78877;SDS011;68257;43.514;1.498;2023-05-07T14:19:52;6.82;;;4.32;;
78877;SDS011;68257;43.514;1.498;2023-05-07T14:22:21;7.25;;;3.08;;
78877;SDS011;68257;43.514;1.498;2023-05-07T14:24:47;5.63;;;2.90;;
78877;SDS011;68257;43.514;1.498;2023-05-07T14:27:13;6.03;;;2.80;;
78877;SDS011;68257;43.514;1.498;2023-05-07T14:29:38;7.20;;;2.90;;
78877;SDS011;68257;43.514;1.498;2023-05-07T14:32:04;5.43;;;2.90;;
78877;SDS011;68257;43.514;1.498;2023-05-07T14:34:30;5.95;;;3.85;;
78877;SDS011;68257;43.514;1.498;2023-05-07T14:36:56;7.60;;;3.88;;
78877;SDS011;68257;43.514;1.498;2023-05-07T14:39:21;6.03;;;2.80;;
78877;SDS011;68257;43.514;1.498;2023-05-07T14:41:47;6.70;;;2.67;;
78877;SDS011;68257;43.514;1.498;2023-05-07T14:44:12;6.37;;;3.03;;
78877;SDS011;68257;43.514;1.498;2023-05-07T14:46:38;5.85;;;2.75;;
78877;SDS011;68257;43.514;1.498;2023-05-07T14:49:03;6.07;;;2.80;;
78877;SDS011;68257;43.514;1.498;2023-05-07T14:51:29;6.10;;;2.83;;
78877;SDS011;68257;43.514;1.498;2023-05-07T14:53:55;5.68;;;2.75;;
78877;SDS011;68257;43.514;1.498;2023-05-07T14:56:21;7.40;;;2.70;;